Hilltown, Pennsylvania
Current Conditions -  °F | °C
As of 12:55 PM on Thursday 30 Oct 2014 (Local Time) from KLOM Reporting Station
Scattered Clouds Scattered Clouds  
Wind Chill: 59°   Ceiling: Unl
Heat Index: 59°   Visibility: 10mi
Dew Point: 41°   Wind: 7mph
Humidity: 51%   Direction: 350°N
Pressure: 30.01"   Gusts: NA
Location:  40.2°N, 75.14°W
Report Text: KLOM 301655Z AUTO 35006KT 10SM SCT038 15/05 A3001 RMK AO1
Loading
Personal Weather Stations






























Interactive Weather Map
Tropical Storm Tracking
New forecast layout! Learn more

10-Day Weather Forecast

Advertisements
Track Severe Weather on mobile